createdAt,value
2018-10-12T00:06:04.188Z,99.90
2018-10-12T00:16:05.451Z,99.90
2018-10-12T00:26:06.750Z,99.90
2018-10-12T00:36:08.022Z,99.90
2018-10-12T00:46:09.270Z,99.90
2018-10-12T00:56:10.511Z,99.90
2018-10-12T01:06:11.755Z,99.90
2018-10-12T01:16:13.753Z,99.90
2018-10-12T01:26:15.777Z,99.90
2018-10-12T01:36:17.810Z,99.90
2018-10-12T01:46:19.847Z,99.90
2018-10-12T01:56:21.114Z,99.90
2018-10-12T02:06:22.397Z,99.90
2018-10-12T02:16:23.660Z,99.90
2018-10-12T02:26:24.922Z,99.90
2018-10-12T02:36:26.258Z,99.90
2018-10-12T02:46:27.505Z,99.90
2018-10-12T02:56:28.751Z,99.90
2018-10-12T03:06:29.979Z,99.90
2018-10-12T03:16:31.256Z,99.90
2018-10-12T03:26:32.574Z,99.90
2018-10-12T03:36:33.862Z,99.90
2018-10-12T03:46:35.143Z,99.90
2018-10-12T03:56:37.234Z,99.90
2018-10-12T04:06:38.579Z,99.90
2018-10-12T04:16:39.861Z,99.90
2018-10-12T04:26:41.185Z,99.90
2018-10-12T04:36:42.460Z,99.90
2018-10-12T04:46:43.698Z,99.90
2018-10-12T04:56:44.951Z,99.90
2018-10-12T05:06:46.182Z,99.90
2018-10-12T05:16:47.439Z,99.90
2018-10-12T05:26:48.711Z,99.90
2018-10-12T05:36:49.973Z,99.90
2018-10-12T05:46:51.260Z,99.90
2018-10-12T05:56:52.551Z,99.90
2018-10-12T06:06:53.839Z,99.90
2018-10-12T06:16:55.119Z,99.90
2018-10-12T06:26:56.452Z,99.90
2018-10-12T06:36:57.684Z,99.90
2018-10-12T06:46:59.703Z,99.90
2018-10-12T06:57:00.938Z,99.90
2018-10-12T07:07:02.218Z,99.90
2018-10-12T07:17:03.482Z,99.90
2018-10-12T07:27:04.763Z,99.90
2018-10-12T07:37:06.177Z,99.90
2018-10-12T07:47:08.293Z,99.90
2018-10-12T07:57:09.647Z,99.90
2018-10-12T08:07:11.721Z,99.90
2018-10-12T08:17:13.083Z,99.90
2018-10-12T08:27:15.137Z,99.90
2018-10-12T08:37:16.445Z,99.90
2018-10-12T08:47:17.699Z,99.90
2018-10-12T08:57:18.963Z,97.20
2018-10-12T09:07:20.251Z,60.70
2018-10-12T09:17:21.567Z,52.10
2018-10-12T09:27:22.854Z,41.60
2018-10-12T09:37:24.135Z,39.80
2018-10-12T09:47:25.410Z,37.30
2018-10-12T09:57:26.709Z,47.00
2018-10-12T10:07:27.991Z,56.30
2018-10-12T10:17:29.256Z,59.20
2018-10-12T10:27:30.636Z,58.90
2018-10-12T10:37:31.934Z,58.60
2018-10-12T10:47:33.794Z,60.80
2018-10-12T10:57:36.910Z,61.10
2018-10-12T11:07:38.992Z,58.80
2018-10-12T11:17:43.585Z,58.70
2018-10-12T11:27:44.865Z,58.80
2018-10-12T11:37:46.155Z,59.50
2018-10-12T11:47:47.502Z,58.70
2018-10-12T11:57:48.800Z,59.30
2018-10-12T12:07:50.854Z,59.80
2018-10-12T12:17:52.121Z,59.80
2018-10-12T12:27:54.161Z,59.90
2018-10-12T12:37:56.194Z,60.80
2018-10-12T12:47:57.674Z,60.70
2018-10-12T12:57:59.602Z,61.40
2018-10-12T13:08:00.888Z,62.20
2018-10-12T13:18:02.400Z,60.50
2018-10-12T13:28:03.739Z,62.20
2018-10-12T13:38:05.174Z,60.60
2018-10-12T13:48:06.428Z,62.80
2018-10-12T13:58:07.803Z,61.60
2018-10-12T14:08:09.103Z,61.80
2018-10-12T14:18:10.446Z,62.40
2018-10-12T14:28:12.510Z,65.30
2018-10-12T14:38:13.882Z,65.20
2018-10-12T14:48:15.321Z,67.20
2018-10-12T14:58:18.140Z,69.30
2018-10-12T15:08:19.456Z,70.40
2018-10-12T15:18:20.912Z,70.90
2018-10-12T15:28:22.547Z,72.80
2018-10-12T15:38:23.971Z,75.20
2018-10-12T15:48:25.246Z,79.60
2018-10-12T15:58:26.606Z,90.20
2018-10-12T16:08:27.863Z,99.90
2018-10-12T16:18:29.150Z,99.90
2018-10-12T16:28:31.462Z,99.90
2018-10-12T16:38:32.746Z,99.90
2018-10-12T16:48:34.100Z,99.90
2018-10-12T16:58:35.342Z,99.90
2018-10-12T17:08:37.210Z,99.90
2018-10-12T17:18:38.665Z,99.90
2018-10-12T17:28:39.971Z,99.90
2018-10-12T17:38:41.247Z,99.90
2018-10-12T17:48:43.278Z,99.90
2018-10-12T17:58:44.604Z,99.90
2018-10-12T18:08:46.439Z,99.90
2018-10-12T18:18:48.360Z,99.90
2018-10-12T18:28:50.296Z,99.90
2018-10-12T18:38:52.223Z,99.90
2018-10-12T18:48:55.612Z,99.90
2018-10-12T18:58:57.538Z,99.90
2018-10-12T19:08:59.505Z,99.90
2018-10-12T19:19:00.864Z,99.90
2018-10-12T19:29:03.238Z,99.90
2018-10-12T19:39:04.538Z,99.90
2018-10-12T19:49:05.776Z,99.90
2018-10-12T19:59:07.825Z,99.90
2018-10-12T20:09:10.132Z,99.90
2018-10-12T20:19:11.800Z,99.90
2018-10-12T20:29:13.603Z,99.90
2018-10-12T20:39:15.029Z,99.90
2018-10-12T20:49:16.614Z,99.90
2018-10-12T20:59:17.997Z,99.90
2018-10-12T21:09:19.258Z,99.90
2018-10-12T21:19:20.790Z,99.90
2018-10-12T21:29:22.053Z,99.90
2018-10-12T21:39:23.314Z,99.90
2018-10-12T21:49:25.784Z,99.90
2018-10-12T21:59:27.346Z,99.90
2018-10-12T22:09:28.684Z,99.90
2018-10-12T22:19:29.954Z,99.90
2018-10-12T22:29:31.220Z,99.90
2018-10-12T22:39:32.470Z,99.90
2018-10-12T22:49:33.749Z,99.90
2018-10-12T22:59:35.083Z,99.90
2018-10-12T23:09:36.314Z,99.90
2018-10-12T23:19:38.327Z,99.90
2018-10-12T23:29:39.729Z,99.90
2018-10-12T23:39:40.970Z,99.90
2018-10-12T23:49:42.230Z,99.90
2018-10-12T23:59:43.550Z,99.90
